Coloma, MI (49039)

6:31 AM EDT on July 06, 2015 (GMT -0400)
East Paw Paw Lake | | Change Station
CLOSE
Current Station
Personal Weather Station
Location: Watervliet, MI
Elevation: 663 ft
Nearby Weather Stations

Elev 663 ft 42.21 °N, 86.25 °W | Updated 3 seconds ago

Clear
Clear
59.9 °F
Feels Like 59.9 °F
N
1.0
Wind Variable Wind from ENE
Gusts 2.0 mph

Today
High -- | Low -- °F
--% Chance of Precip.
Yesterday
High -- | Low -- °F
Precip. -- in
6:15 AM 9:24 PM
Waning Gibbous, 77% visible
Pressure 30.01 in
Visibility 6.0 miles
Clouds Clear
Dew Point 59 °F
Humidity 98%
Rainfall 0.00 in
Snow Depth Not available.
UV 0 out of 12
Pollen 3.70 out of 12
Air Quality Not available.
Flu Activity Not available.
METAR KBEH 060953Z AUTO 14003KT 6SM BR CLR 16/14 A3002 RMK AO2 SLP163 T01610144

More Conditions Fewer Conditions

Pressure 30.01 in
Visibility 6.0 miles
Clouds Clear
Dew Point 59 °F
Humidity 98%
Rainfall 0.00 in
Snow Depth Not available.
UV 0 out of 12
Pollen 3.70 out of 12
Air Quality Not available.
Flu Activity Not available.
METAR KBEH 060953Z AUTO 14003KT 6SM BR CLR 16/14 A3002 RMK AO2 SLP163 T01610144

More Conditions Fewer Conditions

10-Day Weather Forecast

×

Almanac

Astronomy

Jul. 06, 2015 Rise Set
Actual Time
Civil Twilight
Nautical Twilight
Astronomical Twilight
Moon
Length of Visible Light
Length of Day
Tomorrow will be .
, % of the Moon is Illuminated

Today's Extremes

State Highs State Lows

Community

WunderPhotos

Upload Photos

1,835,530 photos uploaded!

WunderBlogs® & News

Nearby

Air Quality

  Air Quality AQ Index Pollutant
Not available.

Snow Depth

Station Depth Elevation

Earthquake Activity

City Distance Mag. Time & Date
Minimum magnitude displayed is 2.5.

Coastal Water Temperatures

Place Temperature

Stations

Nearby Weather Stations

Station Location Temp. Windchill Dew Point Humidity Wind Precip. Elev Updated Type